createdAt,value
2022-09-11T00:01:00.359Z,84.78
2022-09-11T00:03:28.228Z,83.75
2022-09-11T00:05:54.966Z,82.63
2022-09-11T00:08:21.732Z,84.00
2022-09-11T00:10:48.825Z,83.48
2022-09-11T00:13:21.530Z,83.74
2022-09-11T00:15:51.954Z,83.67
2022-09-11T00:18:21.841Z,82.53
2022-09-11T00:20:56.643Z,83.37
2022-09-11T00:23:25.990Z,84.25
2022-09-11T00:25:52.984Z,82.54
2022-09-11T00:28:24.490Z,82.94
2022-09-11T00:31:06.040Z,84.14
2022-09-11T00:33:33.504Z,84.99
2022-09-11T00:36:03.971Z,83.59
2022-09-11T00:38:33.292Z,82.13
2022-09-11T00:41:01.309Z,82.83
2022-09-11T00:43:29.183Z,82.16
2022-09-11T00:45:59.863Z,81.99
2022-09-11T00:48:29.891Z,82.52
2022-09-11T00:50:56.842Z,81.83
2022-09-11T00:53:25.689Z,81.73
2022-09-11T00:55:58.016Z,81.88
2022-09-11T00:58:28.568Z,81.30
2022-09-11T01:00:56.468Z,81.79
2022-09-11T01:03:25.462Z,81.25
2022-09-11T01:05:52.482Z,81.52
2022-09-11T01:08:20.929Z,80.65
2022-09-11T01:11:05.906Z,81.33
2022-09-11T01:13:50.907Z,81.60
2022-09-11T01:16:53.316Z,82.47
2022-09-11T01:19:56.989Z,81.55
2022-09-11T01:22:41.452Z,81.44
2022-09-11T01:25:31.553Z,80.99
2022-09-11T01:28:00.910Z,80.09
2022-09-11T01:30:37.443Z,80.63
2022-09-11T01:33:28.177Z,80.51
2022-09-11T01:36:11.158Z,79.86
2022-09-11T01:38:50.136Z,81.78
2022-09-11T01:41:29.775Z,82.70
2022-09-11T01:44:03.814Z,82.77
2022-09-11T01:46:34.829Z,81.58
2022-09-11T01:49:15.517Z,81.70
2022-09-11T01:51:42.585Z,80.13
2022-09-11T01:54:17.074Z,81.33
2022-09-11T01:56:48.431Z,81.47
2022-09-11T01:59:16.601Z,82.55
2022-09-11T02:01:45.507Z,81.36
2022-09-11T02:04:24.644Z,80.92
2022-09-11T02:06:56.589Z,82.16
2022-09-11T02:09:25.993Z,83.04
2022-09-11T02:11:55.029Z,85.46
2022-09-11T02:14:29.865Z,85.36
2022-09-11T02:17:38.234Z,85.65
2022-09-11T02:20:05.545Z,84.36
2022-09-11T02:22:32.054Z,84.07
2022-09-11T02:24:58.521Z,84.67
2022-09-11T02:27:27.369Z,84.04
2022-09-11T02:29:55.006Z,83.05
2022-09-11T02:32:22.374Z,81.80
2022-09-11T02:34:50.352Z,82.29
2022-09-11T02:37:31.422Z,82.29
2022-09-11T02:40:04.069Z,84.06
2022-09-11T02:43:09.532Z,85.07
2022-09-11T02:45:44.552Z,84.71
2022-09-11T02:48:37.992Z,84.43
2022-09-11T02:51:26.363Z,84.48
2022-09-11T02:53:55.882Z,86.35
2022-09-11T02:56:39.842Z,85.41
2022-09-11T02:59:29.012Z,86.11
2022-09-11T03:01:59.589Z,86.60
2022-09-11T03:04:26.413Z,87.11
2022-09-11T03:06:53.400Z,86.06
2022-09-11T03:09:20.401Z,86.52
2022-09-11T03:11:46.888Z,85.94
2022-09-11T03:14:14.262Z,87.30
2022-09-11T03:16:41.627Z,85.86
2022-09-11T03:19:08.185Z,85.47
2022-09-11T03:21:35.142Z,85.25
2022-09-11T03:24:02.005Z,86.21
2022-09-11T03:26:29.507Z,84.82
2022-09-11T03:28:56.166Z,85.22
2022-09-11T03:31:22.676Z,85.24
2022-09-11T03:33:49.146Z,85.43
2022-09-11T03:36:15.712Z,85.21
2022-09-11T03:38:42.149Z,84.56
2022-09-11T03:41:09.608Z,84.85
2022-09-11T03:43:36.044Z,85.74
2022-09-11T03:46:03.239Z,87.32
2022-09-11T03:48:29.858Z,87.82
2022-09-11T03:50:56.384Z,87.49
2022-09-11T03:53:22.870Z,89.25
2022-09-11T03:55:52.252Z,88.88
2022-09-11T03:58:19.462Z,87.65
2022-09-11T04:00:46.594Z,87.78
2022-09-11T04:03:15.475Z,88.36
2022-09-11T04:05:44.116Z,88.18
2022-09-11T04:08:13.724Z,87.96
2022-09-11T04:10:40.782Z,88.25
2022-09-11T04:13:07.250Z,88.92
2022-09-11T04:15:33.878Z,88.22
2022-09-11T04:18:04.901Z,89.58
2022-09-11T04:20:32.205Z,89.41
2022-09-11T04:22:58.982Z,90.28
2022-09-11T04:25:25.824Z,89.59
2022-09-11T04:27:52.265Z,89.59
2022-09-11T04:30:19.865Z,90.51
2022-09-11T04:32:46.320Z,90.25
2022-09-11T04:35:12.804Z,88.41
2022-09-11T04:37:40.651Z,87.44
2022-09-11T04:40:08.003Z,87.79
2022-09-11T04:42:34.531Z,87.89
2022-09-11T04:45:00.998Z,87.61
2022-09-11T04:47:28.437Z,89.10
2022-09-11T04:49:55.161Z,87.38
2022-09-11T04:52:21.583Z,85.83
2022-09-11T04:54:48.486Z,87.72
2022-09-11T04:57:14.958Z,88.95
2022-09-11T04:59:41.464Z,88.83
2022-09-11T05:02:08.018Z,89.22
2022-09-11T05:04:34.536Z,89.95
2022-09-11T05:07:01.069Z,88.91
2022-09-11T05:09:27.847Z,88.46
2022-09-11T05:11:54.546Z,87.20
2022-09-11T05:14:21.008Z,87.09
2022-09-11T05:16:47.607Z,86.74
2022-09-11T05:19:14.145Z,85.96
2022-09-11T05:21:41.532Z,86.98
2022-09-11T05:24:08.189Z,88.05
2022-09-11T05:26:36.934Z,88.98
2022-09-11T05:29:09.263Z,87.93
2022-09-11T05:31:37.259Z,87.92
2022-09-11T05:34:04.992Z,87.77
2022-09-11T05:36:31.967Z,88.70
2022-09-11T05:38:58.683Z,87.22
2022-09-11T05:41:25.362Z,88.39
2022-09-11T05:43:51.825Z,88.71
2022-09-11T05:46:19.594Z,87.65
2022-09-11T05:48:46.327Z,89.13
2022-09-11T05:51:19.256Z,89.68
2022-09-11T05:53:46.294Z,90.29
2022-09-11T05:56:21.388Z,89.28
2022-09-11T05:58:48.744Z,88.67
2022-09-11T06:01:17.734Z,87.90
2022-09-11T06:03:44.634Z,88.15
2022-09-11T06:06:12.609Z,89.75
2022-09-11T06:08:42.299Z,89.09
2022-09-11T06:11:08.889Z,89.76
2022-09-11T06:13:39.033Z,90.19
2022-09-11T06:16:09.340Z,89.65
2022-09-11T06:18:35.792Z,87.66
2022-09-11T06:21:07.770Z,88.97
2022-09-11T06:23:35.376Z,88.21
2022-09-11T06:26:06.022Z,88.69
2022-09-11T06:28:32.540Z,86.63
2022-09-11T06:30:59.031Z,88.50
2022-09-11T06:33:25.496Z,88.75
2022-09-11T06:36:02.900Z,87.17
2022-09-11T06:38:30.118Z,86.81
2022-09-11T06:40:56.778Z,87.07
2022-09-11T06:43:23.498Z,86.69
2022-09-11T06:45:50.045Z,87.77
2022-09-11T06:48:17.297Z,88.41
2022-09-11T06:50:43.834Z,89.33
2022-09-11T06:53:11.662Z,88.97
2022-09-11T06:55:41.430Z,89.29
2022-09-11T06:58:08.572Z,89.98
2022-09-11T07:00:36.178Z,87.49
2022-09-11T07:03:04.006Z,88.54
2022-09-11T07:05:31.021Z,88.03
2022-09-11T07:07:57.867Z,88.17
2022-09-11T07:10:24.783Z,89.10
2022-09-11T07:12:52.929Z,88.65
2022-09-11T07:15:19.412Z,87.76
2022-09-11T07:17:45.849Z,88.33
2022-09-11T07:20:12.370Z,87.58
2022-09-11T07:22:39.093Z,86.41
2022-09-11T07:25:07.691Z,87.58
2022-09-11T07:27:34.367Z,88.58
2022-09-11T07:30:00.798Z,89.29
2022-09-11T07:32:27.258Z,88.78
2022-09-11T07:34:53.795Z,88.26
2022-09-11T07:37:20.272Z,89.77
2022-09-11T07:39:47.215Z,88.85
2022-09-11T07:42:13.673Z,89.63
2022-09-11T07:44:40.174Z,88.69
2022-09-11T07:47:06.672Z,89.01
2022-09-11T07:49:33.155Z,88.03
2022-09-11T07:51:59.825Z,87.33
2022-09-11T07:54:29.100Z,86.35
2022-09-11T07:56:56.172Z,89.04
2022-09-11T07:59:22.988Z,87.33
2022-09-11T08:01:50.258Z,87.46
2022-09-11T08:04:16.967Z,86.54
2022-09-11T08:06:43.694Z,86.20
2022-09-11T08:09:13.122Z,86.91
2022-09-11T08:11:45.882Z,86.71
2022-09-11T08:14:13.837Z,88.73
2022-09-11T08:16:40.741Z,86.28
2022-09-11T08:19:08.319Z,87.40
2022-09-11T08:21:35.085Z,86.48
2022-09-11T08:24:01.986Z,85.52
2022-09-11T08:26:30.344Z,85.98
2022-09-11T08:28:58.272Z,84.92
2022-09-11T08:31:26.943Z,84.20
2022-09-11T08:33:54.610Z,85.25
2022-09-11T08:36:21.360Z,84.24
2022-09-11T08:38:47.904Z,82.87
2022-09-11T08:41:36.074Z,83.04
2022-09-11T08:44:14.217Z,84.66
2022-09-11T08:46:43.898Z,84.40
2022-09-11T08:49:10.289Z,84.21
2022-09-11T08:51:37.397Z,82.83
2022-09-11T08:54:04.095Z,83.88
2022-09-11T08:56:31.432Z,84.91
2022-09-11T08:59:32.943Z,84.33
2022-09-11T09:02:20.633Z,82.99
2022-09-11T09:05:20.225Z,81.30
2022-09-11T09:08:11.497Z,81.03
2022-09-11T09:10:53.839Z,80.50
2022-09-11T09:13:55.661Z,79.41
2022-09-11T09:16:40.195Z,76.89
2022-09-11T09:19:19.390Z,77.47
2022-09-11T09:22:06.274Z,77.36
2022-09-11T09:24:54.998Z,75.64
2022-09-11T09:27:34.893Z,75.19
2022-09-11T09:30:06.085Z,71.88
2022-09-11T09:32:37.898Z,69.13
2022-09-11T09:35:13.189Z,69.38
2022-09-11T09:37:39.738Z,72.77
2022-09-11T09:40:09.343Z,74.63
2022-09-11T09:43:27.058Z,77.36
2022-09-11T09:46:01.034Z,76.53
2022-09-11T09:48:29.333Z,77.13
2022-09-11T09:50:56.438Z,77.85
2022-09-11T09:53:46.194Z,78.53
2022-09-11T09:56:16.357Z,80.75
2022-09-11T09:58:57.349Z,80.43
2022-09-11T10:01:47.755Z,79.14
2022-09-11T10:04:16.145Z,79.24
2022-09-11T10:06:46.869Z,78.26
2022-09-11T10:09:29.513Z,76.10
2022-09-11T10:12:01.888Z,75.90
2022-09-11T10:14:51.019Z,75.56
2022-09-11T10:17:31.315Z,73.90
2022-09-11T10:20:18.551Z,74.78
2022-09-11T10:22:45.864Z,73.68
2022-09-11T10:25:14.511Z,69.17
2022-09-11T10:27:56.361Z,66.41
2022-09-11T10:30:33.992Z,66.03
2022-09-11T10:33:03.886Z,67.59
2022-09-11T10:35:31.705Z,66.78
2022-09-11T10:38:17.809Z,67.95
2022-09-11T10:41:15.284Z,65.52
2022-09-11T10:43:41.752Z,62.04
2022-09-11T10:46:40.962Z,60.86
2022-09-11T10:49:23.723Z,59.64
2022-09-11T10:52:00.902Z,59.94
2022-09-11T10:55:06.416Z,63.64
2022-09-11T10:57:57.574Z,63.94
2022-09-11T11:00:31.427Z,64.55
2022-09-11T11:03:05.335Z,65.07
2022-09-11T11:05:50.641Z,65.68
2022-09-11T11:08:51.288Z,64.76
2022-09-11T11:11:40.303Z,63.19
2022-09-11T11:14:32.299Z,63.24
2022-09-11T11:17:05.554Z,61.61
2022-09-11T11:19:53.757Z,62.46
2022-09-11T11:22:58.399Z,61.15
2022-09-11T11:25:37.584Z,61.30
2022-09-11T11:28:16.043Z,61.46
2022-09-11T11:30:49.145Z,60.79
2022-09-11T11:33:25.642Z,61.26
2022-09-11T11:36:10.922Z,63.71
2022-09-11T11:38:46.384Z,65.12
2022-09-11T11:41:19.505Z,65.71
2022-09-11T11:43:48.252Z,66.10
2022-09-11T11:46:38.926Z,64.97
2022-09-11T11:49:19.463Z,64.55
2022-09-11T11:52:19.258Z,64.22
2022-09-11T11:55:13.181Z,62.57
2022-09-11T11:57:42.348Z,60.30
2022-09-11T12:00:15.347Z,59.95
2022-09-11T12:03:01.183Z,58.92
2022-09-11T12:05:32.983Z,59.48
2022-09-11T12:08:14.478Z,59.83
2022-09-11T12:10:46.279Z,61.13
2022-09-11T12:13:18.114Z,60.46
2022-09-11T12:16:31.948Z,60.46
2022-09-11T12:19:09.967Z,55.97
2022-09-11T12:22:23.403Z,59.30
2022-09-11T12:25:07.786Z,60.37
2022-09-11T12:28:27.196Z,59.27
2022-09-11T12:31:15.105Z,57.33
2022-09-11T12:33:42.079Z,57.23
2022-09-11T12:36:13.850Z,55.52
2022-09-11T12:38:59.000Z,55.85
2022-09-11T12:41:34.285Z,57.22
2022-09-11T12:44:03.359Z,58.24
2022-09-11T12:46:30.268Z,57.51
2022-09-11T12:49:21.170Z,58.14
2022-09-11T12:51:56.153Z,55.83
2022-09-11T12:54:27.959Z,55.92
2022-09-11T12:57:09.381Z,56.61
2022-09-11T12:59:42.906Z,59.22
2022-09-11T13:02:26.940Z,60.97
2022-09-11T13:04:55.035Z,60.50
2022-09-11T13:07:32.735Z,60.91
2022-09-11T13:10:08.372Z,60.42
2022-09-11T13:12:35.399Z,60.98
2022-09-11T13:15:03.752Z,60.93
2022-09-11T13:17:39.591Z,60.98
2022-09-11T13:20:18.021Z,59.74
2022-09-11T13:22:56.080Z,60.67
2022-09-11T13:25:29.197Z,58.86
2022-09-11T13:28:03.042Z,57.62
2022-09-11T13:30:30.300Z,58.45
2022-09-11T13:33:11.111Z,58.19
2022-09-11T13:35:42.435Z,55.98
2022-09-11T13:38:29.304Z,54.31
2022-09-11T13:41:04.173Z,54.10
2022-09-11T13:43:48.044Z,53.44
2022-09-11T13:46:16.881Z,53.17
2022-09-11T13:48:48.221Z,55.26
2022-09-11T13:51:19.856Z,58.15
2022-09-11T13:53:58.104Z,58.14
2022-09-11T13:57:07.326Z,58.46
2022-09-11T13:59:38.646Z,58.87
2022-09-11T14:02:44.262Z,59.71
2022-09-11T14:05:21.414Z,58.57
2022-09-11T14:08:07.877Z,57.98
2022-09-11T14:10:44.765Z,56.76
2022-09-11T14:13:32.457Z,57.55
2022-09-11T14:16:09.087Z,57.77
2022-09-11T14:18:46.553Z,57.27
2022-09-11T14:21:21.086Z,57.60
2022-09-11T14:23:53.313Z,58.07
2022-09-11T14:26:25.372Z,57.59
2022-09-11T14:28:56.807Z,59.29
2022-09-11T14:31:29.167Z,58.64
2022-09-11T14:34:22.476Z,60.14
2022-09-11T14:37:06.077Z,58.55
2022-09-11T14:39:42.516Z,60.16
2022-09-11T14:42:16.970Z,60.00
2022-09-11T14:44:53.059Z,58.64
2022-09-11T14:47:26.704Z,59.28
2022-09-11T14:49:55.195Z,59.38
2022-09-11T14:52:28.118Z,58.15
2022-09-11T14:54:57.289Z,57.97
2022-09-11T14:57:28.119Z,59.26
2022-09-11T14:59:55.219Z,58.52
2022-09-11T15:02:25.029Z,57.84
2022-09-11T15:04:53.705Z,57.45
2022-09-11T15:07:23.481Z,57.87
2022-09-11T15:09:52.123Z,58.31
2022-09-11T15:12:21.615Z,58.68
2022-09-11T15:14:58.849Z,58.23
2022-09-11T15:17:26.374Z,58.11
2022-09-11T15:19:53.816Z,58.75
2022-09-11T15:22:22.313Z,56.76
2022-09-11T15:24:50.280Z,57.42
2022-09-11T15:27:19.922Z,57.45
2022-09-11T15:29:46.922Z,56.84
2022-09-11T15:32:14.895Z,57.68
2022-09-11T15:34:44.382Z,58.18
2022-09-11T15:37:12.321Z,58.82
2022-09-11T15:39:39.641Z,58.52
2022-09-11T15:42:08.136Z,57.53
2022-09-11T15:44:36.176Z,58.04
2022-09-11T15:47:04.709Z,57.91
2022-09-11T15:49:34.398Z,58.64
2022-09-11T15:52:03.043Z,58.78
2022-09-11T15:54:29.990Z,58.28
2022-09-11T15:56:57.396Z,57.54
2022-09-11T15:59:24.631Z,57.65
2022-09-11T16:01:52.002Z,59.40
2022-09-11T16:04:22.356Z,59.42
2022-09-11T16:06:52.109Z,60.14
2022-09-11T16:09:22.275Z,59.29
2022-09-11T16:11:51.561Z,60.15
2022-09-11T16:14:22.411Z,61.28
2022-09-11T16:16:50.359Z,60.08
2022-09-11T16:19:21.285Z,61.03
2022-09-11T16:21:49.281Z,60.75
2022-09-11T16:24:18.181Z,61.46
2022-09-11T16:26:46.608Z,61.67
2022-09-11T16:29:21.239Z,61.10
2022-09-11T16:31:50.063Z,61.70
2022-09-11T16:34:18.667Z,60.80
2022-09-11T16:36:46.602Z,60.69
2022-09-11T16:39:19.576Z,61.03
2022-09-11T16:41:47.087Z,61.41
2022-09-11T16:44:16.543Z,60.92
2022-09-11T16:46:45.536Z,61.31
2022-09-11T16:49:16.285Z,60.33
2022-09-11T16:51:44.792Z,60.54
2022-09-11T16:54:12.096Z,61.06
2022-09-11T16:56:43.946Z,62.68
2022-09-11T16:59:13.866Z,62.14
2022-09-11T17:01:40.911Z,63.75
2022-09-11T17:04:07.798Z,64.48
2022-09-11T17:06:34.436Z,64.40
2022-09-11T17:09:02.295Z,64.85
2022-09-11T17:11:31.223Z,65.95
2022-09-11T17:13:59.779Z,66.85
2022-09-11T17:16:28.217Z,67.23
2022-09-11T17:18:56.584Z,67.15
2022-09-11T17:21:24.256Z,66.62
2022-09-11T17:23:56.844Z,67.49
2022-09-11T17:26:25.105Z,67.33
2022-09-11T17:28:54.483Z,67.67
2022-09-11T17:31:24.179Z,67.75
2022-09-11T17:33:51.869Z,68.01
2022-09-11T17:36:21.370Z,68.15
2022-09-11T17:38:49.317Z,68.20
2022-09-11T17:41:16.483Z,68.52
2022-09-11T17:43:42.972Z,68.03
2022-09-11T17:46:15.116Z,68.49
2022-09-11T17:48:42.528Z,68.65
2022-09-11T17:51:20.113Z,69.88
2022-09-11T17:53:52.280Z,69.46
2022-09-11T17:56:21.169Z,69.19
2022-09-11T17:58:52.276Z,69.63
2022-09-11T18:01:19.373Z,69.85
2022-09-11T18:03:50.874Z,71.60
2022-09-11T18:06:31.232Z,71.04
2022-09-11T18:09:01.680Z,71.15
2022-09-11T18:11:29.393Z,70.75
2022-09-11T18:13:55.823Z,70.39
2022-09-11T18:16:22.781Z,69.23
2022-09-11T18:18:49.254Z,70.23
2022-09-11T18:21:15.974Z,70.65
2022-09-11T18:23:45.056Z,70.67
2022-09-11T18:26:26.511Z,70.36
2022-09-11T18:29:02.081Z,71.56
2022-09-11T18:31:31.317Z,72.00
2022-09-11T18:34:00.331Z,71.34
2022-09-11T18:36:28.982Z,71.96
2022-09-11T18:38:57.582Z,71.81
2022-09-11T18:41:24.257Z,70.95
2022-09-11T18:44:00.020Z,70.78
2022-09-11T18:46:27.348Z,71.70
2022-09-11T18:48:55.829Z,72.60
2022-09-11T18:51:22.493Z,71.34
2022-09-11T18:53:52.006Z,72.77
2022-09-11T18:56:19.789Z,71.55
2022-09-11T18:58:47.823Z,72.01
2022-09-11T19:01:15.719Z,71.82
2022-09-11T19:03:43.665Z,71.38
2022-09-11T19:06:15.334Z,71.70
2022-09-11T19:08:44.635Z,71.68
2022-09-11T19:11:16.546Z,71.16
2022-09-11T19:13:44.205Z,71.38
2022-09-11T19:16:11.688Z,71.18
2022-09-11T19:18:42.167Z,71.88
2022-09-11T19:21:12.081Z,73.79
2022-09-11T19:23:43.698Z,72.03
2022-09-11T19:26:22.054Z,72.14
2022-09-11T19:28:50.056Z,71.71
2022-09-11T19:31:21.138Z,71.61
2022-09-11T19:33:48.031Z,71.92
2022-09-11T19:36:17.967Z,73.29
2022-09-11T19:38:46.494Z,72.15
2022-09-11T19:41:15.510Z,72.02
2022-09-11T19:43:42.989Z,74.06
2022-09-11T19:46:10.864Z,74.78
2022-09-11T19:48:40.353Z,72.24
2022-09-11T19:51:23.425Z,74.44
2022-09-11T19:53:51.592Z,73.17
2022-09-11T19:56:19.066Z,73.11
2022-09-11T19:58:45.759Z,73.34
2022-09-11T20:01:17.556Z,74.73
2022-09-11T20:03:45.837Z,74.07
2022-09-11T20:06:14.141Z,74.44
2022-09-11T20:08:45.503Z,72.99
2022-09-11T20:11:15.804Z,73.34
2022-09-11T20:13:42.398Z,73.58
2022-09-11T20:16:15.133Z,72.99
2022-09-11T20:18:42.391Z,72.96
2022-09-11T20:21:11.613Z,73.65
2022-09-11T20:23:39.015Z,74.58
2022-09-11T20:26:17.172Z,74.08
2022-09-11T20:28:45.039Z,73.73
2022-09-11T20:31:18.773Z,73.42
2022-09-11T20:33:46.231Z,73.56
2022-09-11T20:36:13.193Z,74.31
2022-09-11T20:38:39.669Z,73.49
2022-09-11T20:41:07.876Z,74.90
2022-09-11T20:43:34.429Z,74.48
2022-09-11T20:46:01.254Z,75.08
2022-09-11T20:48:28.262Z,75.46
2022-09-11T20:50:54.845Z,76.33
2022-09-11T20:53:24.260Z,75.27
2022-09-11T20:55:50.726Z,75.53
2022-09-11T20:58:17.168Z,75.11
2022-09-11T21:00:46.785Z,74.72
2022-09-11T21:03:13.681Z,76.69
2022-09-11T21:05:40.202Z,75.80
2022-09-11T21:08:06.660Z,74.86
2022-09-11T21:10:36.751Z,75.04
2022-09-11T21:13:03.277Z,74.81
2022-09-11T21:15:29.871Z,74.97
2022-09-11T21:17:56.694Z,76.32
2022-09-11T21:20:23.348Z,74.71
2022-09-11T21:22:50.135Z,74.52
2022-09-11T21:25:16.712Z,74.65
2022-09-11T21:27:43.174Z,74.75
2022-09-11T21:30:10.034Z,75.22
2022-09-11T21:32:36.517Z,76.67
2022-09-11T21:35:02.964Z,76.65
2022-09-11T21:37:29.398Z,76.75
2022-09-11T21:39:55.861Z,76.61
2022-09-11T21:42:22.384Z,74.43
2022-09-11T21:44:48.836Z,74.90
2022-09-11T21:47:15.322Z,76.15
2022-09-11T21:49:41.776Z,75.29
2022-09-11T21:52:08.604Z,75.89
2022-09-11T21:54:35.049Z,75.40
2022-09-11T21:57:01.532Z,74.84
2022-09-11T21:59:27.985Z,75.11
2022-09-11T22:01:54.508Z,75.27
2022-09-11T22:04:21.200Z,74.29
2022-09-11T22:06:47.735Z,76.17
2022-09-11T22:09:20.265Z,75.47
2022-09-11T22:11:47.857Z,76.28
2022-09-11T22:14:19.016Z,77.51
2022-09-11T22:16:46.114Z,76.94
2022-09-11T22:19:13.660Z,75.47
2022-09-11T22:21:40.623Z,77.14
2022-09-11T22:24:07.169Z,76.40
2022-09-11T22:26:33.693Z,76.27
2022-09-11T22:29:00.171Z,76.83
2022-09-11T22:31:28.885Z,76.03
2022-09-11T22:33:55.610Z,75.78
2022-09-11T22:36:27.598Z,75.29
2022-09-11T22:38:54.553Z,76.04
2022-09-11T22:41:21.496Z,75.65
2022-09-11T22:43:49.992Z,75.93
2022-09-11T22:46:19.673Z,76.70
2022-09-11T22:48:46.290Z,75.08
2022-09-11T22:51:13.244Z,75.32
2022-09-11T22:53:40.113Z,75.90
2022-09-11T22:56:07.086Z,75.27
2022-09-11T22:58:33.567Z,75.60
2022-09-11T23:01:03.892Z,76.79
2022-09-11T23:03:30.809Z,76.68
2022-09-11T23:06:17.561Z,77.52
2022-09-11T23:08:45.758Z,76.23
2022-09-11T23:11:15.305Z,75.65
2022-09-11T23:13:42.640Z,77.37
2022-09-11T23:16:15.327Z,75.46
2022-09-11T23:18:42.293Z,75.37
2022-09-11T23:21:09.257Z,75.62
2022-09-11T23:23:40.908Z,75.86
2022-09-11T23:26:08.833Z,75.38
2022-09-11T23:28:35.760Z,75.38
2022-09-11T23:31:02.896Z,75.13
2022-09-11T23:33:30.333Z,75.23
2022-09-11T23:35:56.810Z,76.88
2022-09-11T23:38:23.321Z,76.57
2022-09-11T23:40:49.863Z,75.82
2022-09-11T23:43:16.320Z,76.92
2022-09-11T23:45:42.751Z,75.87
2022-09-11T23:48:09.389Z,76.93
2022-09-11T23:50:35.838Z,76.29
2022-09-11T23:53:02.521Z,75.34
2022-09-11T23:55:29.174Z,75.14
2022-09-11T23:57:55.721Z,74.78
